Waverly, Indiana
Current Conditions -  °F | °C
As of 9:15 AM on Saturday 25 Oct 2014 (Local Time) from K1II Reporting Station
Overcast Overcast  
Wind Chill: 57°   Ceiling: 2400
Heat Index: 57°   Visibility: 10mi
Dew Point: 52°   Wind: 6mph
Humidity: 82%   Direction: 240°WSW
Pressure: 30"   Gusts: NA
Location:  39.4615°N, 86.4578°W
Report Text: K1II 251315Z AUTO 24005KT 10SM BKN024 OVC039 14/11 A3000 RMK AO2
Loading
Personal Weather Stations






























Interactive Weather Map
Tropical Storm Tracking
New forecast layout! Learn more

10-Day Weather Forecast

Advertisements
Track Severe Weather on mobile